createdAt,value
2022-09-10T16:43:46.620Z,23.07
2022-09-10T16:44:49.040Z,23.06
2022-09-10T16:45:51.052Z,23.06
2022-09-10T16:46:52.786Z,23.07
2022-09-10T16:47:55.250Z,23.10
2022-09-10T16:48:59.112Z,23.10
2022-09-10T16:50:00.817Z,23.15
2022-09-10T16:51:15.529Z,23.20
2022-09-10T16:52:17.443Z,23.20
2022-09-10T16:53:19.291Z,23.20
2022-09-10T16:54:22.320Z,23.22
2022-09-10T16:55:24.102Z,23.24
2022-09-10T16:56:26.091Z,23.24
2022-09-10T16:57:27.820Z,23.27
2022-09-10T16:58:33.969Z,23.28
2022-09-10T16:59:37.419Z,23.27
2022-09-10T17:00:40.541Z,23.30
2022-09-10T17:01:48.140Z,23.33
2022-09-10T17:02:50.813Z,23.32
2022-09-10T17:03:52.707Z,23.32
2022-09-10T17:04:55.415Z,23.31
2022-09-10T17:05:59.067Z,23.33
2022-09-10T17:07:00.813Z,23.33
2022-09-10T17:08:02.814Z,23.33
2022-09-10T17:09:04.592Z,23.34
2022-09-10T17:10:07.084Z,23.34
2022-09-10T17:11:08.865Z,23.33
2022-09-10T17:12:10.614Z,23.34
2022-09-10T17:13:12.336Z,23.33
2022-09-10T17:14:14.108Z,23.35
2022-09-10T17:15:15.833Z,23.34
2022-09-10T17:16:37.498Z,23.35
2022-09-10T17:17:39.207Z,23.31
2022-09-10T17:18:41.273Z,23.31
2022-09-10T17:19:43.036Z,23.30
2022-09-10T17:20:44.870Z,23.32
2022-09-10T17:21:51.114Z,23.31
2022-09-10T17:22:52.942Z,23.31
2022-09-10T17:23:56.150Z,23.28
2022-09-10T17:24:57.964Z,23.27
2022-09-10T17:26:08.689Z,23.29
2022-09-10T17:27:11.365Z,23.27
2022-09-10T17:28:13.081Z,23.27
2022-09-10T17:29:17.800Z,23.26
2022-09-10T17:30:21.068Z,23.25
2022-09-10T17:31:23.674Z,23.22
2022-09-10T17:32:26.408Z,23.20
2022-09-10T17:33:28.746Z,23.19
2022-09-10T17:34:30.468Z,23.18
2022-09-10T17:35:32.285Z,23.16
2022-09-10T17:36:34.856Z,23.14
2022-09-10T17:37:37.908Z,23.11
2022-09-10T17:38:39.675Z,23.10
2022-09-10T17:39:41.460Z,23.09
2022-09-10T17:40:44.194Z,23.09
2022-09-10T17:41:46.406Z,23.09
2022-09-10T17:42:49.254Z,23.07
2022-09-10T17:43:51.294Z,23.05
2022-09-10T17:44:53.044Z,23.04
2022-09-10T17:45:55.404Z,23.05
2022-09-10T17:46:57.188Z,23.05
2022-09-10T17:47:58.900Z,23.02
2022-09-10T17:49:00.785Z,23.02
2022-09-10T17:50:02.518Z,23.01
2022-09-10T17:51:06.241Z,23.02
2022-09-10T17:52:08.069Z,23.01
2022-09-10T17:53:11.271Z,22.99
2022-09-10T17:54:13.515Z,22.99
2022-09-10T17:55:15.607Z,23.01
2022-09-10T17:56:19.363Z,22.97
2022-09-10T17:57:22.299Z,22.96
2022-09-10T17:58:24.019Z,22.96
2022-09-10T17:59:26.660Z,22.94
2022-09-10T18:00:28.392Z,22.96
2022-09-10T18:01:36.202Z,22.95
2022-09-10T18:02:38.074Z,22.92
2022-09-10T18:03:40.840Z,22.91
2022-09-10T18:04:42.839Z,22.91
2022-09-10T18:05:45.815Z,22.90
2022-09-10T18:06:51.658Z,22.91
2022-09-10T18:07:54.043Z,22.91
2022-09-10T18:09:01.729Z,22.91
2022-09-10T18:10:04.871Z,22.87
2022-09-10T18:11:14.984Z,22.88
2022-09-10T18:12:16.757Z,22.89
2022-09-10T18:13:19.441Z,22.85
2022-09-10T18:14:23.786Z,22.83
2022-09-10T18:15:26.942Z,22.82
2022-09-10T18:16:32.899Z,22.83
2022-09-10T18:17:34.920Z,22.83
2022-09-10T18:18:38.683Z,22.79
2022-09-10T18:19:40.624Z,22.78
2022-09-10T18:20:43.003Z,22.77
2022-09-10T18:21:47.423Z,22.76
2022-09-10T18:22:49.679Z,22.74
2022-09-10T18:23:55.024Z,22.72
2022-09-10T18:24:56.714Z,22.70
2022-09-10T18:25:59.137Z,22.69
2022-09-10T18:27:04.476Z,22.69
2022-09-10T18:28:06.218Z,22.68
2022-09-10T18:29:14.986Z,22.66
2022-09-10T18:30:17.672Z,22.63
2022-09-10T18:31:19.825Z,22.63
2022-09-10T18:32:21.917Z,22.63
2022-09-10T18:33:23.624Z,22.61
2022-09-10T18:34:28.699Z,22.62
2022-09-10T18:35:30.400Z,22.59
2022-09-10T18:36:32.421Z,22.57
2022-09-10T18:37:34.174Z,22.57
2022-09-10T18:38:35.881Z,22.55
2022-09-10T18:39:37.719Z,22.57
2022-09-10T18:40:40.445Z,22.55
2022-09-10T18:41:43.397Z,22.54
2022-09-10T18:42:46.964Z,22.52
2022-09-10T18:43:50.867Z,22.50
2022-09-10T18:44:52.939Z,22.51
2022-09-10T18:45:54.643Z,22.50
2022-09-10T18:46:56.521Z,22.49
2022-09-10T18:47:58.232Z,22.49
2022-09-10T18:49:00.719Z,22.46
2022-09-10T18:50:02.465Z,22.46
2022-09-10T18:51:12.772Z,22.47
2022-09-10T18:52:14.760Z,22.47
2022-09-10T18:53:16.472Z,22.47
2022-09-10T18:54:19.995Z,22.45
2022-09-10T18:55:21.727Z,22.44
2022-09-10T18:56:27.343Z,22.44
2022-09-10T18:57:29.621Z,22.45
2022-09-10T18:58:31.343Z,22.43
2022-09-10T18:59:33.144Z,22.42
2022-09-10T19:00:34.870Z,22.41
2022-09-10T19:01:40.525Z,22.42
2022-09-10T19:02:42.583Z,22.40
2022-09-10T19:03:47.416Z,22.38
2022-09-10T19:05:09.849Z,22.37
2022-09-10T19:06:15.811Z,22.37
2022-09-10T19:07:17.880Z,22.37
2022-09-10T19:08:19.591Z,22.35
2022-09-10T19:09:30.225Z,22.38
2022-09-10T19:10:31.934Z,22.36
2022-09-10T19:11:38.398Z,22.35
2022-09-10T19:12:40.098Z,22.33
2022-09-10T19:13:42.065Z,22.31
2022-09-10T19:14:45.778Z,22.31
2022-09-10T19:15:59.099Z,22.32
2022-09-10T19:17:02.320Z,22.31
2022-09-10T19:18:06.473Z,22.30
2022-09-10T19:19:18.436Z,22.28
2022-09-10T19:20:20.339Z,22.28
2022-09-10T19:21:24.274Z,22.28
2022-09-10T19:22:26.017Z,22.27
2022-09-10T19:23:27.838Z,22.26
2022-09-10T19:24:53.636Z,22.25
2022-09-10T19:25:56.969Z,22.26
2022-09-10T19:26:58.817Z,22.25
2022-09-10T19:28:00.524Z,22.21
2022-09-10T19:29:04.186Z,22.23
2022-09-10T19:30:06.919Z,22.21
2022-09-10T19:31:12.149Z,22.21
2022-09-10T19:32:15.061Z,22.19
2022-09-10T19:33:17.822Z,22.20
2022-09-10T19:34:21.767Z,22.17
2022-09-10T19:35:23.885Z,22.18
2022-09-10T19:36:31.559Z,22.19
2022-09-10T19:37:33.275Z,22.18
2022-09-10T19:38:37.910Z,22.18
2022-09-10T19:39:39.896Z,22.17
2022-09-10T19:40:41.649Z,22.16
2022-09-10T19:41:45.665Z,22.16
2022-09-10T19:42:47.363Z,22.13
2022-09-10T19:43:51.856Z,22.13
2022-09-10T19:44:53.581Z,22.13
2022-09-10T19:45:56.313Z,22.10
2022-09-10T19:46:58.620Z,22.09
2022-09-10T19:48:00.424Z,22.08
2022-09-10T19:49:03.838Z,22.07
2022-09-10T19:50:05.931Z,22.06
2022-09-10T19:51:13.216Z,22.05
2022-09-10T19:52:15.315Z,22.06
2022-09-10T19:53:17.041Z,22.05
2022-09-10T19:54:18.797Z,22.04
2022-09-10T19:55:22.635Z,22.04
2022-09-10T19:56:29.320Z,22.05
2022-09-10T19:57:31.237Z,22.05
2022-09-10T19:58:37.672Z,22.04
2022-09-10T19:59:39.448Z,22.05
2022-09-10T20:00:46.821Z,22.02
2022-09-10T20:01:49.170Z,22.02
2022-09-10T20:02:51.209Z,22.03
2022-09-10T20:03:55.301Z,22.00
2022-09-10T20:04:57.050Z,22.00
2022-09-10T20:05:59.077Z,21.99
2022-09-10T20:07:01.224Z,21.99
2022-09-10T20:08:04.242Z,22.00
2022-09-10T20:09:09.736Z,22.00
2022-09-10T20:10:11.505Z,21.99
2022-09-10T20:11:21.314Z,21.99
2022-09-10T20:12:24.267Z,21.98
2022-09-10T20:13:26.057Z,21.99
2022-09-10T20:14:28.050Z,21.98
2022-09-10T20:15:29.762Z,21.98
2022-09-10T20:16:31.555Z,21.96
2022-09-10T20:17:34.278Z,21.96
2022-09-10T20:18:37.200Z,21.97
2022-09-10T20:19:39.025Z,21.98
2022-09-10T20:20:40.806Z,21.98
2022-09-10T20:21:42.761Z,21.98
2022-09-10T20:22:44.480Z,21.98
2022-09-10T20:23:50.782Z,21.98
2022-09-10T20:24:52.507Z,21.97
2022-09-10T20:25:54.348Z,21.95
2022-09-10T20:26:56.964Z,21.95
2022-09-10T20:27:58.833Z,21.95
2022-09-10T20:29:03.902Z,21.95
2022-09-10T20:30:06.680Z,21.94
2022-09-10T20:31:11.650Z,21.94
2022-09-10T20:32:14.046Z,21.92
2022-09-10T20:33:16.546Z,21.92
2022-09-10T20:34:22.618Z,21.92
2022-09-10T20:35:24.419Z,21.91
2022-09-10T20:36:28.518Z,21.92
2022-09-10T20:37:30.227Z,21.91
2022-09-10T20:38:33.574Z,21.92
2022-09-10T20:39:36.255Z,21.91
2022-09-10T20:40:42.272Z,21.90
2022-09-10T20:41:45.220Z,21.90
2022-09-10T20:42:46.953Z,21.88
2022-09-10T20:43:53.816Z,21.89
2022-09-10T20:44:55.600Z,21.90
2022-09-10T20:45:57.532Z,21.88
2022-09-10T20:47:00.118Z,21.89
2022-09-10T20:48:02.679Z,21.88
2022-09-10T20:49:04.582Z,21.89
2022-09-10T20:50:06.741Z,21.88
2022-09-10T20:51:09.393Z,21.88
2022-09-10T20:52:11.110Z,21.88
2022-09-10T20:53:12.821Z,21.87
2022-09-10T20:54:17.833Z,21.90
2022-09-10T20:55:19.970Z,21.90
2022-09-10T20:56:22.079Z,21.90
2022-09-10T20:57:23.854Z,21.91
2022-09-10T20:58:25.573Z,21.92
2022-09-10T20:59:29.055Z,21.91
2022-09-10T21:00:30.757Z,21.93
2022-09-10T21:01:32.773Z,21.93
2022-09-10T21:02:34.714Z,21.93
2022-09-10T21:03:37.893Z,21.91
2022-09-10T21:04:39.595Z,21.92
2022-09-10T21:05:49.184Z,21.93
2022-09-10T21:06:50.931Z,21.94
2022-09-10T21:07:52.673Z,21.93
2022-09-10T21:08:55.878Z,21.93
2022-09-10T21:09:57.629Z,21.94
2022-09-10T21:11:06.024Z,21.93
2022-09-10T21:12:07.906Z,21.92
2022-09-10T21:13:09.642Z,21.92
2022-09-10T21:14:12.518Z,21.92
2022-09-10T21:15:14.296Z,21.93
2022-09-10T21:16:26.913Z,21.94
2022-09-10T21:17:28.663Z,21.94
2022-09-10T21:18:30.380Z,21.93
2022-09-10T21:19:32.078Z,21.92
2022-09-10T21:20:33.785Z,21.93
2022-09-10T21:21:37.191Z,21.93
2022-09-10T21:22:39.187Z,21.92
2022-09-10T21:23:45.762Z,21.92
2022-09-10T21:24:47.509Z,21.90
2022-09-10T21:25:51.973Z,21.88
2022-09-10T21:26:53.795Z,21.88
2022-09-10T21:27:55.508Z,21.89
2022-09-10T21:29:00.152Z,21.88
2022-09-10T21:30:03.938Z,21.88
2022-09-10T21:31:08.294Z,21.86
2022-09-10T21:32:10.973Z,21.88
2022-09-10T21:33:12.983Z,21.86
2022-09-10T21:34:15.155Z,21.85
2022-09-10T21:35:17.152Z,21.85
2022-09-10T21:36:20.686Z,21.85
2022-09-10T21:37:22.499Z,21.85
2022-09-10T21:38:25.571Z,21.86
2022-09-10T21:39:27.349Z,21.84
2022-09-10T21:40:29.066Z,21.83
2022-09-10T21:41:40.683Z,21.84
2022-09-10T21:42:42.407Z,21.83
2022-09-10T21:43:47.174Z,21.81
2022-09-10T21:44:48.891Z,21.81
2022-09-10T21:45:51.057Z,21.80
2022-09-10T21:46:53.325Z,21.79
2022-09-10T21:47:55.061Z,21.79
2022-09-10T21:48:57.063Z,21.80
2022-09-10T21:49:59.442Z,21.79
2022-09-10T21:51:05.722Z,21.79
2022-09-10T21:52:08.297Z,21.80
2022-09-10T21:53:11.067Z,21.79
2022-09-10T21:54:20.803Z,21.80
2022-09-10T21:55:23.226Z,21.78
2022-09-10T21:56:27.503Z,21.75
2022-09-10T21:57:29.207Z,21.77
2022-09-10T21:58:35.879Z,21.77
2022-09-10T21:59:37.684Z,21.76
2022-09-10T22:00:39.600Z,21.76
2022-09-10T22:01:45.007Z,21.75
2022-09-10T22:02:49.319Z,21.77
2022-09-10T22:03:54.718Z,21.76
2022-09-10T22:04:57.382Z,21.76
2022-09-10T22:06:11.847Z,21.76
2022-09-10T22:07:14.247Z,21.75
2022-09-10T22:08:15.965Z,21.75
2022-09-10T22:09:17.976Z,21.75
2022-09-10T22:10:20.288Z,21.74
2022-09-10T22:11:30.365Z,21.75
2022-09-10T22:12:32.223Z,21.75
2022-09-10T22:13:34.833Z,21.75
2022-09-10T22:14:36.565Z,21.75
2022-09-10T22:15:42.573Z,21.73
2022-09-10T22:16:45.670Z,21.73
2022-09-10T22:17:47.377Z,21.73
2022-09-10T22:18:50.749Z,21.73
2022-09-10T22:19:52.485Z,21.72
2022-09-10T22:21:01.359Z,21.74
2022-09-10T22:22:03.209Z,21.73
2022-09-10T22:23:05.800Z,21.76
2022-09-10T22:24:11.046Z,21.74
2022-09-10T22:25:12.756Z,21.72
2022-09-10T22:26:18.439Z,21.73
2022-09-10T22:27:20.453Z,21.72
2022-09-10T22:28:22.310Z,21.71
2022-09-10T22:29:25.080Z,21.72
2022-09-10T22:30:27.735Z,21.72
2022-09-10T22:31:36.022Z,21.73
2022-09-10T22:32:37.810Z,21.74
2022-09-10T22:33:45.563Z,21.74
2022-09-10T22:34:48.441Z,21.73
2022-09-10T22:35:50.183Z,21.73
2022-09-10T22:36:51.925Z,21.73
2022-09-10T22:37:56.190Z,21.72
2022-09-10T22:39:05.580Z,21.74
2022-09-10T22:40:08.248Z,21.72
2022-09-10T22:41:10.438Z,21.70
2022-09-10T22:42:12.154Z,21.69
2022-09-10T22:43:13.926Z,21.70
2022-09-10T22:44:17.854Z,21.70
2022-09-10T22:45:20.604Z,21.70
2022-09-10T22:46:23.558Z,21.70
2022-09-10T22:47:25.308Z,21.70
2022-09-10T22:48:27.456Z,21.69
2022-09-10T22:49:29.184Z,21.68
2022-09-10T22:50:30.910Z,21.68
2022-09-10T22:51:36.946Z,21.68
2022-09-10T22:52:38.796Z,21.69
2022-09-10T22:53:42.835Z,21.68
2022-09-10T22:54:45.112Z,21.66
2022-09-10T22:55:46.855Z,21.68
2022-09-10T22:56:48.752Z,21.68
2022-09-10T22:57:50.440Z,21.67
2022-09-10T22:58:54.066Z,21.68
2022-09-10T22:59:55.796Z,21.66
2022-09-10T23:01:11.708Z,21.69
2022-09-10T23:02:13.412Z,21.68
2022-09-10T23:03:15.242Z,21.66
2022-09-10T23:04:16.974Z,21.66
2022-09-10T23:05:19.117Z,21.65
2022-09-10T23:06:23.920Z,21.64
2022-09-10T23:07:26.004Z,21.62
2022-09-10T23:08:28.475Z,21.64
2022-09-10T23:09:30.201Z,21.62
2022-09-10T23:10:31.888Z,21.62
2022-09-10T23:11:36.143Z,21.61
2022-09-10T23:12:38.645Z,21.62
2022-09-10T23:13:40.928Z,21.60
2022-09-10T23:14:43.163Z,21.62
2022-09-10T23:15:46.056Z,21.62
2022-09-10T23:16:50.784Z,21.63
2022-09-10T23:17:55.660Z,21.64
2022-09-10T23:19:00.186Z,21.64
2022-09-10T23:20:02.583Z,21.63
2022-09-10T23:21:05.000Z,21.62
2022-09-10T23:22:06.762Z,21.62
2022-09-10T23:23:08.499Z,21.62
2022-09-10T23:24:14.213Z,21.62
2022-09-10T23:25:18.346Z,21.62
2022-09-10T23:26:21.722Z,21.60
2022-09-10T23:27:23.663Z,21.62
2022-09-10T23:28:28.147Z,21.62
2022-09-10T23:29:29.914Z,21.61
2022-09-10T23:30:31.627Z,21.60
2022-09-10T23:31:37.516Z,21.58
2022-09-10T23:32:39.279Z,21.58
2022-09-10T23:33:43.987Z,21.56
2022-09-10T23:34:45.762Z,21.57
2022-09-10T23:35:51.404Z,21.56
2022-09-10T23:36:53.385Z,21.56
2022-09-10T23:37:55.127Z,21.55
2022-09-10T23:38:58.868Z,21.55
2022-09-10T23:40:00.742Z,21.55
2022-09-10T23:41:02.846Z,21.54
2022-09-10T23:42:04.974Z,21.54
2022-09-10T23:43:06.705Z,21.54
2022-09-10T23:44:09.441Z,21.55
2022-09-10T23:45:11.493Z,21.53
2022-09-10T23:46:14.214Z,21.52
2022-09-10T23:47:15.992Z,21.51
2022-09-10T23:48:17.685Z,21.51
2022-09-10T23:49:19.749Z,21.47
2022-09-10T23:50:21.438Z,21.48
2022-09-10T23:51:23.621Z,21.49
2022-09-10T23:52:26.951Z,21.48
2022-09-10T23:53:29.895Z,21.49
2022-09-10T23:54:31.636Z,21.50
2022-09-10T23:55:36.736Z,21.50
2022-09-10T23:56:39.483Z,21.51
2022-09-10T23:57:41.210Z,21.49
2022-09-10T23:58:43.475Z,21.49
2022-09-10T23:59:45.203Z,21.49
